Time,TemperatureF,DewpointF,PressureIn,WindDirection,WindDirectionDegrees,WindSpeedMPH,WindSpeedGustMPH,Humidity,HourlyPrecipIn,Conditions,Clouds,dailyrainin,SolarRadiationWatts/m^2,SoftwareType,DateUTC
2013-10-07 00:00:00,51.0,42.0,-100.00,WSW,247,4.0,-999.0,69,-99.99,,,-99.99,0.000000,,2013-10-07 04:00:00,
2013-10-07 00:44:00,51.0,42.0,-100.00,WSW,247,4.0,-999.0,69,-99.99,,,-99.99,0.000000,,2013-10-07 04:44:00,
2013-10-07 00:53:00,51.0,42.0,-100.00,WSW,247,4.0,-999.0,69,-99.99,,,-99.99,0.000000,,2013-10-07 04:53:00,
2013-10-07 01:00:00,49.0,42.0,-100.00,SW,225,2.0,-999.0,77,-99.99,,,-99.99,0.000000,,2013-10-07 05:00:00,
2013-10-07 01:43:00,49.0,42.0,-100.00,SW,225,2.0,-999.0,77,-99.99,,,-99.99,0.000000,,2013-10-07 05:43:00,
2013-10-07 01:52:00,49.0,42.0,-100.00,SW,225,2.0,-999.0,77,-99.99,,,-99.99,0.000000,,2013-10-07 05:52:00,
2013-10-07 03:00:00,47.0,41.0,-100.00,SW,225,3.0,-999.0,80,-99.99,,,-99.99,0.000000,,2013-10-07 07:00:00,
2013-10-07 03:42:00,47.0,41.0,-100.00,SW,225,3.0,-999.0,80,-99.99,,,-99.99,0.000000,,2013-10-07 07:42:00,
2013-10-07 03:52:00,47.0,41.0,-100.00,SW,225,3.0,-999.0,80,-99.99,,,-99.99,0.000000,,2013-10-07 07:52:00,
2013-10-07 05:00:00,45.0,42.0,-100.00,SSW,202,2.0,-999.0,90,-99.99,,,-99.99,0.000000,,2013-10-07 09:00:00,
2013-10-07 05:43:00,45.0,42.0,-100.00,SSW,202,2.0,-999.0,90,-99.99,,,-99.99,0.000000,,2013-10-07 09:43:00,
2013-10-07 05:54:00,45.0,42.0,-100.00,SSW,202,2.0,-999.0,90,-99.99,,,-99.99,0.000000,,2013-10-07 09:54:00,
2013-10-07 06:00:00,45.0,42.0,-100.00,SW,225,3.0,-999.0,91,-99.99,,,-99.99,0.000000,,2013-10-07 10:00:00,
2013-10-07 06:43:00,45.0,42.0,-100.00,SW,225,3.0,-999.0,91,-99.99,,,-99.99,0.000000,,2013-10-07 10:43:00,
2013-10-07 06:53:00,45.0,42.0,-100.00,SW,225,3.0,-999.0,91,-99.99,,,-99.99,0.000000,,2013-10-07 10:53:00,
2013-10-07 07:00:00,44.0,42.0,-100.00,SW,225,2.0,-999.0,92,0.02,,,-99.99,0.000000,,2013-10-07 11:00:00,
2013-10-07 07:42:00,44.0,42.0,-100.00,SW,225,2.0,-999.0,92,0.02,,,-99.99,0.000000,,2013-10-07 11:42:00,
2013-10-07 07:52:00,44.0,42.0,-100.00,SW,225,2.0,-999.0,92,0.02,,,-99.99,0.000000,,2013-10-07 11:52:00,
2013-10-07 08:00:00,45.0,44.0,-100.00,SSW,202,4.0,-999.0,94,-99.99,,,-99.99,1.160000,,2013-10-07 12:00:00,
2013-10-07 08:43:00,45.0,44.0,-100.00,SSW,202,4.0,-999.0,94,-99.99,,,-99.99,1.160000,,2013-10-07 12:43:00,
2013-10-07 08:52:00,45.0,44.0,-100.00,SSW,202,4.0,-999.0,94,-99.99,,,-99.99,1.160000,,2013-10-07 12:52:00,
2013-10-07 09:00:00,46.0,45.0,-100.00,SW,225,3.0,-999.0,95,-99.99,,,-99.99,19.719999,,2013-10-07 13:00:00,
2013-10-07 09:42:00,46.0,45.0,-100.00,SW,225,3.0,-999.0,95,-99.99,,,-99.99,19.719999,,2013-10-07 13:42:00,
2013-10-07 09:52:00,46.0,45.0,-100.00,SW,225,3.0,-999.0,95,-99.99,,,-99.99,19.719999,,2013-10-07 13:52:00,
2013-10-07 10:00:00,49.0,47.0,-100.00,SW,225,2.0,-999.0,91,-99.99,,,-99.99,73.080002,,2013-10-07 14:00:00,
2013-10-07 10:43:00,49.0,47.0,-100.00,SW,225,2.0,-999.0,91,-99.99,,,-99.99,73.080002,,2013-10-07 14:43:00,
2013-10-07 10:52:00,49.0,47.0,-100.00,SW,225,2.0,-999.0,91,-99.99,,,-99.99,73.080002,,2013-10-07 14:52:00,
2013-10-07 11:00:00,52.0,48.0,-100.00,West,270,5.0,-999.0,87,0.01,,,-99.99,37.119999,,2013-10-07 15:00:00,
2013-10-07 11:43:00,52.0,48.0,-100.00,West,270,5.0,-999.0,87,0.01,,,-99.99,37.119999,,2013-10-07 15:43:00,
2013-10-07 11:53:00,52.0,48.0,-100.00,West,270,5.0,-999.0,87,0.01,,,-99.99,37.119999,,2013-10-07 15:53:00,
2013-10-07 12:00:00,51.0,50.0,-100.00,West,270,3.0,-999.0,93,0.06,,,-99.99,40.599998,,2013-10-07 16:00:00,
2013-10-07 12:43:00,51.0,50.0,-100.00,West,270,3.0,-999.0,93,0.06,,,-99.99,40.599998,,2013-10-07 16:43:00,
2013-10-07 12:53:00,51.0,50.0,-100.00,West,270,3.0,-999.0,93,0.06,,,-99.99,40.599998,,2013-10-07 16:53:00,
2013-10-07 14:00:00,56.0,48.0,-100.00,WNW,292,8.0,-999.0,74,-99.99,,,-99.99,324.799988,,2013-10-07 18:00:00,
2013-10-07 14:42:00,56.0,48.0,-100.00,WNW,292,8.0,-999.0,74,-99.99,,,-99.99,324.799988,,2013-10-07 18:42:00,
2013-10-07 14:52:00,56.0,48.0,-100.00,WNW,292,8.0,-999.0,74,-99.99,,,-99.99,324.799988,,2013-10-07 18:52:00,
2013-10-07 15:00:00,58.0,46.0,-100.00,West,270,7.0,-999.0,63,-99.99,,,-99.99,306.239990,,2013-10-07 19:00:00,
2013-10-07 15:42:00,58.0,46.0,-100.00,West,270,7.0,-999.0,63,-99.99,,,-99.99,306.239990,,2013-10-07 19:42:00,
2013-10-07 15:53:00,58.0,46.0,-100.00,West,270,7.0,-999.0,63,-99.99,,,-99.99,306.239990,,2013-10-07 19:53:00,
2013-10-07 16:00:00,60.0,46.0,-100.00,West,270,6.0,-999.0,60,-99.99,,,-99.99,408.320007,,2013-10-07 20:00:00,
2013-10-07 16:43:00,60.0,46.0,-100.00,West,270,6.0,-999.0,60,-99.99,,,-99.99,408.320007,,2013-10-07 20:43:00,
2013-10-07 16:52:00,60.0,46.0,-100.00,West,270,6.0,-999.0,60,-99.99,,,-99.99,408.320007,,2013-10-07 20:52:00,
2013-10-07 17:00:00,60.0,45.0,-100.00,West,270,6.0,-999.0,58,-99.99,,,-99.99,350.320007,,2013-10-07 21:00:00,
2013-10-07 17:43:00,60.0,45.0,-100.00,West,270,6.0,-999.0,58,-99.99,,,-99.99,350.320007,,2013-10-07 21:43:00,
2013-10-07 17:55:00,60.0,45.0,-100.00,West,270,6.0,-999.0,58,-99.99,,,-99.99,350.320007,,2013-10-07 21:55:00,
2013-10-07 19:00:00,59.0,44.0,-100.00,WNW,292,4.0,-999.0,59,-99.99,,,-99.99,89.320000,,2013-10-07 23:00:00,
2013-10-07 19:42:00,59.0,44.0,-100.00,WNW,292,4.0,-999.0,59,-99.99,,,-99.99,89.320000,,2013-10-07 23:42:00,
2013-10-07 19:52:00,59.0,44.0,-100.00,WNW,292,4.0,-999.0,59,-99.99,,,-99.99,89.320000,,2013-10-07 23:52:00,
2013-10-07 20:00:00,50.0,46.0,-100.00,SSW,202,0.0,-999.0,86,-99.99,,,-99.99,2.320000,,2013-10-08 00:00:00,
2013-10-07 20:42:00,50.0,46.0,-100.00,SSW,202,0.0,-999.0,86,-99.99,,,-99.99,2.320000,,2013-10-08 00:42:00,
2013-10-07 20:52:00,50.0,46.0,-100.00,SSW,202,0.0,-999.0,86,-99.99,,,-99.99,2.320000,,2013-10-08 00:52:00,
2013-10-07 21:00:00,45.0,44.0,-100.00,East,90,0.0,-999.0,95,-99.99,,,-99.99,0.000000,,2013-10-08 01:00:00,
2013-10-07 21:42:00,45.0,44.0,-100.00,East,90,0.0,-999.0,95,-99.99,,,-99.99,0.000000,,2013-10-08 01:42:00,
2013-10-07 21:52:00,45.0,44.0,-100.00,East,90,0.0,-999.0,95,-99.99,,,-99.99,0.000000,,2013-10-08 01:52:00,
2013-10-07 22:00:00,44.0,44.0,-100.00,East,90,0.0,-999.0,97,-99.99,,,-99.99,0.000000,,2013-10-08 02:00:00,
2013-10-07 22:42:00,44.0,44.0,-100.00,East,90,0.0,-999.0,97,-99.99,,,-99.99,0.000000,,2013-10-08 02:42:00,
2013-10-07 22:52:00,44.0,44.0,-100.00,East,90,0.0,-999.0,97,-99.99,,,-99.99,0.000000,,2013-10-08 02:52:00,
2013-10-07 23:00:00,45.0,44.0,-100.00,SE,135,1.0,-999.0,97,-99.99,,,-99.99,0.000000,,2013-10-08 03:00:00,
2013-10-07 23:44:00,45.0,44.0,-100.00,SE,135,1.0,-999.0,97,-99.99,,,-99.99,0.000000,,2013-10-08 03:44:00,
2013-10-07 23:55:00,45.0,44.0,-100.00,SE,135,1.0,-999.0,97,-99.99,,,-99.99,0.000000,,2013-10-08 03:55:00,